OAS weather

Sharana Airstrip
Sharana, Paktika Province, Afghanistan

Public forecast

Using degrees Celsius for public forecast. Weather courtesy of forecast.io.

METAR (pilot weather report)

Closest report is Hamid Karzai International Airport, 88.5 nm (163.8 km) NNE. Retrieved 2019/08/18 17:50 UTC (15 minutes ago):

OAKB 181750Z VRB05KT CAVOK 23/M08 Q1016 NOSIG RMK A3003 BLU BLU

TAF (pilot weather forecast)

Closest forecast is Hamid Karzai International Airport, 88.5 nm (163.8 km) NNE. Retrieved 2019/08/18 18:05 UTC (0 seconds ago):

TAF OAKB 181705Z 1818/1918 03012KT CAVOK BECMG 1818/1820 VRB02KT BECMG 1906/1908 04012KT FEW080 BECMG 1909/1911 06015G25KT PROB30 TEMPO 1914/1916 07020G35KT